CYNM

Matagami Airport

Matagami, Quebec, Canada
METAR CYNM 172100Z AUTO 19007KT 9SM OVC120 M18/M22 A3012 RMK ICG SLP234
Observed Flight Rules
Dec-17 @ 21:00 UTC (26 minutes ago) Visual Flight Rules
Wind Visibility Clouds
190° at 7 knots 9 miles
  • Overcast at 12,000' AGL
Temperatures Readings
Current -18°C / 0°F
Dewpoint -22°C / -8°F
Humidity 71%
Altimeter 30.12" Hg
Pressure 1023.4 hPa
Elevation 281
METAR CYNM 172100Z AUTO 19007KT 9SM OVC120 M18/M22 A3012 RMK ICG SLP234
Observed Flight Rules
Dec-17 @ 21:00 UTC
(26 minutes ago)
VFR
Wind Visibility
190° at 7 knots 9 miles
Clouds
  • Overcast at 12,000' AGL
Temperature Dewpoint
-18°C / 0°F -22°C / -8°F
Humidity Altimeter Pressure
71% 30.12" Hg 1023.4 hPa